Time;durP1;ratioP1;P1;durP2;ratioP2;P2;SDS_P1;SDS_P2;PMS_P1;PMS_P2;Temp;Humidity;BMP_temperature;BMP_pressure;BME280_temperature;BME280_humidity;BME280_pressure;Samples;Min_cycle;Max_cycle;Signal;HPM_P1;HPM_P2
2022/01/31 09:49:12;;;;;;;9.43;1.27;;;7.30;99.90;;;;;;5009516;28;20284;-73
2022/01/31 09:51:39;;;;;;;7.70;0.97;;;7.40;99.90;;;;;;5015330;28;20222;-73
2022/01/31 09:54:06;;;;;;;6.80;0.90;;;7.50;99.90;;;;;;4997075;28;20206;-73
2022/01/31 09:56:36;;;;;;;2.43;0.63;;;7.60;99.90;;;;;;4976144;28;20211;-73
2022/01/31 09:59:04;;;;;;;5.63;0.80;;;7.60;99.90;;;;;;4976788;28;20207;-70
2022/01/31 10:01:34;;;;;;;7.93;0.40;;;7.50;99.90;;;;;;4975999;28;20725;-72
2022/01/31 10:04:04;;;;;;;5.10;0.77;;;7.40;99.90;;;;;;4993423;28;20616;-73
2022/01/31 10:06:32;;;;;;;4.20;0.60;;;7.40;99.90;;;;;;4995477;28;20210;-70
2022/01/31 10:09:02;;;;;;;7.90;0.90;;;7.40;99.90;;;;;;4995291;28;20719;-70
2022/01/31 10:11:37;;;;;;;7.47;1.13;;;7.40;99.90;;;;;;5002384;28;20229;-72
2022/01/31 10:16:57;;;;;;;2.47;0.43;;;6.30;99.90;;;;;;5011441;28;20736;-72
2022/01/31 10:19:24;;;;;;;8.73;1.00;;;5.70;99.90;;;;;;5003327;28;20240;-71
2022/01/31 10:21:59;;;;;;;4.93;0.80;;;5.70;99.90;;;;;;4995345;28;20547;-72
2022/01/31 10:24:27;;;;;;;13.67;1.20;;;5.70;99.90;;;;;;4975817;28;20214;-71
2022/01/31 10:26:54;;;;;;;2.57;0.97;;;5.80;99.90;;;;;;4974957;28;20211;-72
2022/01/31 10:29:24;;;;;;;5.13;0.97;;;5.90;99.90;;;;;;4975829;28;20219;-74
2022/01/31 10:31:57;;;;;;;9.20;1.57;;;6.10;99.90;;;;;;4975419;28;20270;-72
2022/01/31 10:34:25;;;;;;;4.23;1.00;;;6.20;99.90;;;;;;4975052;28;20208;-73
2022/01/31 10:36:52;;;;;;;7.67;1.03;;;6.30;99.90;;;;;;4975880;28;20253;-73
2022/01/31 10:45:32;;;;;;;8.30;1.37;;;6.70;99.90;;;;;;5013642;28;20301;-71
2022/01/31 10:53:58;;;;;;;8.13;1.07;;;6.80;99.90;;;;;;4994016;28;20211;-73
2022/01/31 10:56:34;;;;;;;10.13;1.40;;;6.80;99.90;;;;;;4992025;28;20232;-72
2022/01/31 10:59:04;;;;;;;11.27;1.40;;;6.90;99.90;;;;;;4994378;28;20202;-73
2022/01/31 11:01:31;;;;;;;6.20;0.90;;;7.00;99.90;;;;;;4994405;28;20238;-69
2022/01/31 11:04:04;;;;;;;12.43;1.00;;;7.10;99.90;;;;;;4994299;28;20207;-70
2022/01/31 11:06:32;;;;;;;10.80;1.47;;;7.10;99.90;;;;;;4994965;28;20206;-70
2022/01/31 11:09:07;;;;;;;5.83;1.07;;;7.00;99.90;;;;;;4992234;28;20206;-73
2022/01/31 11:11:35;;;;;;;6.63;1.07;;;6.90;99.90;;;;;;4985336;28;20292;-74
2022/01/31 11:14:03;;;;;;;4.40;1.13;;;6.80;99.90;;;;;;4985576;28;20207;-74
2022/01/31 11:16:31;;;;;;;8.93;0.87;;;6.90;99.90;;;;;;4989544;28;20203;-73
2022/01/31 11:19:02;;;;;;;3.97;0.93;;;6.80;99.90;;;;;;4989891;28;20575;-73
2022/01/31 11:21:33;;;;;;;5.47;1.03;;;6.80;99.90;;;;;;4991338;28;20246;-73
2022/01/31 11:24:02;;;;;;;7.20;1.17;;;6.90;99.90;;;;;;4990982;28;20214;-74
2022/01/31 11:26:36;;;;;;;8.57;1.07;;;6.90;99.90;;;;;;4985365;28;20202;-73
2022/01/31 11:29:05;;;;;;;7.57;0.90;;;6.90;99.90;;;;;;4987768;28;20207;-72
2022/01/31 11:31:32;;;;;;;13.13;1.23;;;7.00;99.90;;;;;;4986984;28;20238;-73
2022/01/31 11:34:01;;;;;;;7.93;1.63;;;7.00;99.90;;;;;;4987412;28;20674;-74
2022/01/31 11:36:29;;;;;;;2.40;0.73;;;7.00;99.90;;;;;;4990851;28;20202;-73
2022/01/31 11:38:57;;;;;;;12.60;1.30;;;7.00;99.90;;;;;;4989537;28;20221;-73
2022/01/31 11:41:24;;;;;;;4.33;1.07;;;7.10;99.90;;;;;;4991256;28;20584;-73
2022/01/31 11:43:57;;;;;;;5.07;1.33;;;7.00;99.90;;;;;;4990053;28;20202;-74
2022/01/31 11:46:25;;;;;;;8.30;1.03;;;7.10;99.90;;;;;;4993222;28;20333;-74
2022/01/31 11:48:52;;;;;;;10.00;0.93;;;7.10;99.90;;;;;;4993424;28;20220;-74
2022/01/31 11:51:22;;;;;;;6.67;0.80;;;6.90;99.90;;;;;;4993423;28;20230;-74
2022/01/31 11:53:50;;;;;;;3.43;0.73;;;6.90;99.90;;;;;;4993521;28;20203;-73
2022/01/31 11:56:20;;;;;;;7.77;0.90;;;6.90;99.90;;;;;;4993767;28;20297;-75
2022/01/31 11:58:49;;;;;;;5.83;1.07;;;6.80;99.90;;;;;;4993815;28;20294;-74
2022/01/31 12:01:16;;;;;;;2.07;0.60;;;6.60;99.90;;;;;;4993056;28;20325;-73
2022/01/31 12:03:54;;;;;;;7.83;1.10;;;6.60;99.90;;;;;;4993807;28;20213;-74
2022/01/31 12:06:24;;;;;;;10.37;1.43;;;6.40;99.90;;;;;;4993692;28;20202;-75
2022/01/31 12:08:53;;;;;;;6.20;1.00;;;6.40;99.90;;;;;;4993559;28;20655;-74
2022/01/31 12:11:26;;;;;;;8.67;1.10;;;6.50;99.90;;;;;;4993202;28;20234;-73
2022/01/31 12:13:57;;;;;;;10.40;1.23;;;6.70;99.90;;;;;;4993434;28;20276;-73
2022/01/31 12:16:49;;;;;;;4.83;1.10;;;6.80;99.90;;;;;;4993139;28;20233;-73
2022/01/31 12:19:46;;;;;;;9.03;1.97;;;6.90;99.90;;;;;;4993472;28;20293;-74
2022/01/31 12:22:44;;;;;;;9.10;1.30;;;6.90;99.90;;;;;;4979830;28;20237;-73
2022/01/31 12:25:28;;;;;;;16.90;2.13;;;7.00;99.90;;;;;;4993420;28;20210;-73
2022/01/31 12:27:56;;;;;;;5.63;0.90;;;7.00;99.90;;;;;;4993005;28;20199;-73
2022/01/31 12:30:34;;;;;;;4.63;1.10;;;7.00;99.90;;;;;;4992684;28;20210;-73
2022/01/31 12:33:02;;;;;;;4.73;0.93;;;7.00;99.90;;;;;;4992865;28;20206;-73
2022/01/31 12:35:37;;;;;;;9.83;1.00;;;6.90;99.90;;;;;;4993186;28;20213;-74
2022/01/31 12:38:06;;;;;;;13.07;1.47;;;7.00;99.90;;;;;;4993380;28;20206;-74
2022/01/31 12:40:40;;;;;;;7.77;0.80;;;7.00;99.90;;;;;;4993021;28;20207;-74
2022/01/31 12:43:13;;;;;;;6.47;1.47;;;6.90;99.90;;;;;;4993119;28;20285;-74
2022/01/31 12:46:11;;;;;;;10.17;1.60;;;6.90;99.90;;;;;;4992807;28;20234;-74
2022/01/31 12:48:38;;;;;;;5.50;1.33;;;6.80;99.90;;;;;;4881275;29;20203;-74
2022/01/31 12:51:15;;;;;;;7.57;1.60;;;6.70;99.90;;;;;;4968900;28;20230;-74
2022/01/31 12:53:52;;;;;;;7.23;1.40;;;6.60;99.90;;;;;;4997009;28;20663;-73
2022/01/31 12:56:29;;;;;;;12.37;1.33;;;6.60;99.90;;;;;;4997274;28;20210;-73
2022/01/31 12:59:00;;;;;;;7.23;0.80;;;6.60;99.90;;;;;;4996938;28;20265;-71
2022/01/31 13:01:29;;;;;;;12.17;1.13;;;6.70;99.90;;;;;;4996037;28;20237;-73
2022/01/31 13:03:58;;;;;;;11.07;0.70;;;6.80;99.90;;;;;;4996246;28;20297;-73
2022/01/31 13:06:44;;;;;;;8.03;1.43;;;6.80;99.90;;;;;;4996558;28;20216;-71
2022/01/31 13:09:16;;;;;;;6.03;0.83;;;6.80;99.90;;;;;;4996200;28;20217;-71
2022/01/31 13:11:45;;;;;;;9.17;1.57;;;6.80;99.90;;;;;;4994397;28;20822;-71
2022/01/31 13:14:16;;;;;;;6.40;0.80;;;6.70;99.90;;;;;;4994214;28;20273;-73
2022/01/31 13:16:46;;;;;;;12.57;1.30;;;6.50;99.90;;;;;;4995659;28;20567;-71
2022/01/31 13:19:21;;;;;;;9.43;1.20;;;6.60;99.90;;;;;;4995676;28;20206;-71
2022/01/31 13:21:49;;;;;;;11.17;1.40;;;6.70;99.90;;;;;;4994968;28;20891;-71
2022/01/31 13:24:20;;;;;;;7.50;1.13;;;6.70;99.90;;;;;;4994511;28;20214;-72
2022/01/31 13:26:52;;;;;;;8.17;1.17;;;6.70;99.90;;;;;;4995868;28;20210;-72
2022/01/31 13:29:38;;;;;;;7.77;1.20;;;6.80;99.90;;;;;;4995208;28;20569;-72
2022/01/31 13:32:21;;;;;;;8.53;2.00;;;6.70;99.90;;;;;;4975676;28;20234;-72
2022/01/31 13:34:51;;;;;;;15.07;2.50;;;6.70;99.90;;;;;;4975470;28;20556;-72
2022/01/31 13:37:39;;;;;;;12.37;1.23;;;6.80;99.90;;;;;;4975455;28;20207;-72
2022/01/31 13:40:11;;;;;;;13.03;1.93;;;6.90;99.90;;;;;;4985332;28;20289;-73
2022/01/31 13:42:40;;;;;;;8.63;1.93;;;6.80;99.90;;;;;;4995143;28;20242;-77
2022/01/31 13:45:17;;;;;;;8.10;1.70;;;6.90;99.90;;;;;;4995060;28;20250;-74
2022/01/31 13:47:50;;;;;;;10.20;2.13;;;6.80;99.90;;;;;;4995870;28;20268;-74
2022/01/31 13:50:22;;;;;;;9.70;1.87;;;6.80;99.90;;;;;;4995856;28;20269;-75
2022/01/31 13:52:54;;;;;;;15.17;1.83;;;6.80;99.90;;;;;;4996044;28;20623;-75
2022/01/31 13:55:23;;;;;;;11.07;2.17;;;6.80;99.90;;;;;;5004568;28;20205;-74
2022/01/31 13:57:50;;;;;;;16.13;1.40;;;6.80;99.90;;;;;;4997718;28;20685;-73
2022/01/31 14:00:18;;;;;;;9.80;1.10;;;6.80;99.90;;;;;;4994313;28;20229;-74
2022/01/31 14:03:10;;;;;;;10.63;1.87;;;6.70;99.90;;;;;;4995611;28;20238;-71
2022/01/31 14:05:41;;;;;;;10.33;1.20;;;6.70;99.90;;;;;;4991586;28;20269;-77
2022/01/31 14:08:10;;;;;;;13.20;1.40;;;6.70;99.90;;;;;;4994377;28;20217;-73
2022/01/31 14:10:38;;;;;;;9.00;2.20;;;6.70;99.90;;;;;;5001021;28;20663;-73
2022/01/31 14:13:09;;;;;;;13.10;2.47;;;6.80;99.90;;;;;;5006572;28;20210;-72
2022/01/31 14:15:46;;;;;;;16.53;2.23;;;6.70;99.90;;;;;;5005710;28;20669;-75
2022/01/31 14:18:17;;;;;;;7.33;1.47;;;6.50;99.90;;;;;;4994233;28;20722;-74
2022/01/31 14:20:44;;;;;;;9.63;1.40;;;6.60;99.90;;;;;;4993410;28;20216;-78
2022/01/31 14:23:12;;;;;;;6.33;1.37;;;6.60;99.90;;;;;;4992172;28;20230;-80
2022/01/31 14:25:43;;;;;;;5.30;0.90;;;6.70;99.90;;;;;;4990191;28;20229;-75
2022/01/31 14:28:11;;;;;;;12.13;1.33;;;6.70;99.90;;;;;;4993468;28;20199;-84
2022/01/31 14:30:47;;;;;;;14.07;1.67;;;6.70;99.90;;;;;;4990987;28;20203;-73
2022/01/31 14:33:14;;;;;;;19.80;1.63;;;6.70;99.90;;;;;;4993967;28;20249;-75
2022/01/31 14:35:41;;;;;;;7.40;1.13;;;6.60;99.90;;;;;;4994277;28;20560;-74
2022/01/31 14:38:18;;;;;;;13.87;1.93;;;6.50;99.90;;;;;;4995304;28;20210;-79
2022/01/31 14:49:08;;;;;;;13.70;2.67;;;6.30;99.90;;;;;;4993616;28;20286;-75
2022/01/31 14:51:38;;;;;;;6.77;1.43;;;6.10;99.90;;;;;;4993441;28;20245;-73
2022/01/31 14:54:07;;;;;;;13.43;1.47;;;6.00;99.90;;;;;;4993600;28;20209;-77
2022/01/31 14:56:36;;;;;;;4.17;1.30;;;6.00;99.90;;;;;;4993483;28;20198;-75
2022/01/31 14:59:04;;;;;;;9.93;1.83;;;6.00;99.90;;;;;;4993383;28;20307;-75
2022/01/31 15:01:32;;;;;;;15.93;1.53;;;6.10;99.90;;;;;;4993992;28;20237;-73
2022/01/31 15:03:58;;;;;;;11.60;1.27;;;6.00;99.90;;;;;;4993169;28;20226;-74
2022/01/31 15:06:25;;;;;;;8.73;1.27;;;6.00;99.90;;;;;;4993176;28;20202;-74
2022/01/31 15:08:52;;;;;;;21.60;1.77;;;5.90;99.90;;;;;;4991888;28;20212;-72
2022/01/31 15:11:19;;;;;;;9.20;1.40;;;5.90;99.90;;;;;;4986217;28;20586;-72
2022/01/31 15:13:51;;;;;;;10.07;1.67;;;5.90;99.90;;;;;;4978703;28;20209;-71
2022/01/31 15:16:20;;;;;;;9.47;1.53;;;6.00;99.90;;;;;;4982812;28;20207;-74
2022/01/31 15:18:47;;;;;;;9.70;1.57;;;5.90;99.90;;;;;;4985783;28;20294;-76
2022/01/31 15:21:14;;;;;;;9.73;1.93;;;5.90;99.90;;;;;;4993179;28;20590;-74
2022/01/31 15:23:43;;;;;;;12.47;2.27;;;5.80;99.90;;;;;;4991506;28;20332;-74
2022/01/31 15:26:11;;;;;;;9.73;1.30;;;5.70;99.90;;;;;;4990673;28;20301;-72
2022/01/31 15:28:40;;;;;;;9.93;1.20;;;5.60;99.90;;;;;;4993697;28;20215;-77
2022/01/31 15:31:09;;;;;;;10.03;1.50;;;5.60;99.90;;;;;;4991518;28;20237;-76
2022/01/31 15:33:36;;;;;;;12.97;1.80;;;5.50;99.90;;;;;;4992421;28;20211;-81
2022/01/31 15:36:04;;;;;;;6.30;1.57;;;5.40;99.90;;;;;;4990438;28;20268;-80
2022/01/31 15:38:31;;;;;;;10.00;1.53;;;5.40;99.90;;;;;;4986381;28;20238;-75
2022/01/31 15:40:59;;;;;;;14.17;2.70;;;5.40;99.90;;;;;;4992410;28;20317;-74
2022/01/31 15:43:29;;;;;;;12.60;1.77;;;5.50;99.90;;;;;;4992595;28;20230;-76
2022/01/31 15:45:56;;;;;;;11.70;1.80;;;5.50;99.90;;;;;;4993304;28;20241;-75
2022/01/31 15:48:24;;;;;;;12.43;1.63;;;5.50;99.90;;;;;;5020925;23;20229;-78
2022/01/31 15:50:55;;;;;;;23.53;1.77;;;5.50;99.90;;;;;;5009417;28;20198;-76
2022/01/31 15:53:22;;;;;;;17.27;1.70;;;5.60;99.90;;;;;;4992563;28;20292;-79
2022/01/31 15:55:49;;;;;;;15.90;1.83;;;5.50;99.90;;;;;;4989321;28;20202;-78
2022/01/31 15:58:17;;;;;;;13.07;1.30;;;5.90;99.90;;;;;;4991682;28;20294;-79
2022/01/31 16:00:47;;;;;;;11.57;1.00;;;6.40;99.90;;;;;;4983689;28;20266;-78
2022/01/31 16:03:15;;;;;;;8.00;1.23;;;6.60;99.90;;;;;;4973410;28;20238;-78
2022/01/31 16:05:44;;;;;;;12.90;1.87;;;6.20;99.90;;;;;;4987208;28;20294;-78
2022/01/31 16:08:11;;;;;;;9.70;1.60;;;5.90;99.90;;;;;;4979444;28;20209;-79
2022/01/31 16:10:40;;;;;;;8.63;2.33;;;5.80;99.90;;;;;;4991672;28;20209;-75
2022/01/31 16:13:08;;;;;;;16.17;2.07;;;5.80;99.90;;;;;;4992193;28;20293;-74
2022/01/31 16:15:36;;;;;;;14.33;2.17;;;5.80;99.90;;;;;;4992159;28;20210;-77
2022/01/31 16:18:03;;;;;;;11.33;1.30;;;5.70;99.90;;;;;;4993120;28;20212;-74
2022/01/31 16:20:31;;;;;;;13.27;2.53;;;5.70;99.90;;;;;;4993200;28;20198;-76
2022/01/31 16:22:59;;;;;;;17.30;1.97;;;5.70;99.90;;;;;;4992568;28;20245;-75
2022/01/31 16:25:27;;;;;;;16.00;2.07;;;5.70;99.90;;;;;;4992510;28;20659;-74
2022/01/31 16:27:55;;;;;;;7.23;1.47;;;5.70;99.90;;;;;;4992669;28;20774;-73
2022/01/31 16:30:23;;;;;;;6.67;1.60;;;5.60;99.90;;;;;;4993046;28;20210;-78
2022/01/31 16:32:51;;;;;;;18.30;2.60;;;5.70;99.90;;;;;;4992891;28;20234;-79
2022/01/31 16:35:18;;;;;;;9.57;1.57;;;5.70;99.90;;;;;;4992569;28;20612;-76
2022/01/31 16:37:46;;;;;;;10.13;1.20;;;5.70;99.90;;;;;;4993176;28;20321;-78
2022/01/31 16:40:16;;;;;;;18.50;2.53;;;5.70;99.90;;;;;;4992968;28;20574;-74
2022/01/31 16:42:43;;;;;;;15.60;2.50;;;5.70;99.90;;;;;;4992897;28;20234;-76
2022/01/31 16:45:11;;;;;;;10.23;1.47;;;5.70;99.90;;;;;;4990469;28;20206;-78
2022/01/31 16:47:40;;;;;;;17.97;1.70;;;5.70;99.90;;;;;;4992718;28;20264;-78
2022/01/31 16:50:08;;;;;;;7.13;1.30;;;5.70;99.90;;;;;;4985884;28;20253;-79
2022/01/31 16:52:36;;;;;;;8.93;1.40;;;5.70;99.90;;;;;;4991324;28;20218;-80
2022/01/31 16:55:04;;;;;;;8.73;1.50;;;5.80;99.90;;;;;;4992289;28;20217;-79
2022/01/31 16:57:33;;;;;;;13.40;1.93;;;5.80;99.90;;;;;;4992745;28;20206;-74
2022/01/31 16:59:59;;;;;;;15.97;1.40;;;5.90;99.90;;;;;;4992438;28;20562;-76
2022/01/31 17:02:26;;;;;;;15.17;2.10;;;5.80;99.90;;;;;;4992154;28;20236;-74
2022/01/31 17:04:53;;;;;;;13.17;1.97;;;5.90;99.90;;;;;;4991764;28;20648;-74
2022/01/31 17:07:20;;;;;;;13.43;1.50;;;5.90;99.90;;;;;;4986280;28;20195;-74
2022/01/31 17:09:47;;;;;;;6.13;1.60;;;6.10;99.90;;;;;;4992081;28;20214;-75
2022/01/31 17:12:17;;;;;;;15.57;2.23;;;6.00;99.90;;;;;;4988340;28;20551;-75
2022/01/31 17:14:45;;;;;;;11.43;1.70;;;5.90;99.90;;;;;;4981048;28;20266;-74
2022/01/31 17:17:12;;;;;;;11.30;1.47;;;5.80;99.90;;;;;;4980155;28;20202;-75
2022/01/31 17:19:39;;;;;;;8.77;1.03;;;5.80;99.90;;;;;;4992357;28;20227;-74
2022/01/31 17:22:06;;;;;;;13.47;1.33;;;5.80;99.90;;;;;;4991988;28;20230;-74
2022/01/31 17:24:33;;;;;;;11.33;1.53;;;5.80;99.90;;;;;;4992212;28;20234;-75
2022/01/31 17:27:00;;;;;;;6.70;1.33;;;5.80;99.90;;;;;;4992621;28;20214;-74
2022/01/31 17:29:27;;;;;;;17.97;2.00;;;5.80;99.90;;;;;;4992796;28;20202;-79
2022/01/31 17:31:55;;;;;;;10.27;1.30;;;5.70;99.90;;;;;;4992233;28;20233;-75
2022/01/31 17:34:22;;;;;;;11.37;1.70;;;5.70;99.90;;;;;;4992579;28;20689;-78
2022/01/31 17:36:49;;;;;;;15.43;1.70;;;5.80;99.90;;;;;;4995554;28;20203;-75
2022/01/31 17:39:15;;;;;;;11.03;1.53;;;5.80;99.90;;;;;;4995524;28;20677;-74
2022/01/31 17:41:42;;;;;;;19.10;2.63;;;5.90;99.90;;;;;;4996150;28;20313;-75
2022/01/31 17:44:17;;;;;;;14.90;1.87;;;5.90;99.90;;;;;;4995579;28;20729;-74
2022/01/31 17:46:44;;;;;;;12.53;1.97;;;6.00;99.90;;;;;;4980752;28;20626;-76
2022/01/31 17:49:13;;;;;;;5.53;1.87;;;6.00;99.90;;;;;;4975739;28;20214;-74
2022/01/31 17:51:40;;;;;;;15.50;1.60;;;6.00;99.90;;;;;;4976296;28;20234;-77
2022/01/31 17:54:07;;;;;;;9.17;1.23;;;6.10;99.90;;;;;;4976428;28;20208;-78
2022/01/31 17:56:35;;;;;;;10.90;1.57;;;6.00;99.90;;;;;;4975994;28;20680;-75
2022/01/31 17:59:02;;;;;;;15.50;2.40;;;6.10;99.90;;;;;;4990691;28;20207;-80
2022/01/31 18:01:29;;;;;;;12.00;1.87;;;6.10;99.90;;;;;;4994137;28;20226;-79
2022/01/31 18:03:56;;;;;;;21.03;2.07;;;6.10;99.90;;;;;;4995418;28;20238;-77
2022/01/31 18:06:24;;;;;;;18.17;2.03;;;6.20;99.90;;;;;;4994432;28;20198;-78
2022/01/31 18:08:51;;;;;;;13.43;2.33;;;6.30;99.90;;;;;;4995899;28;20211;-77
2022/01/31 18:11:18;;;;;;;10.37;1.97;;;6.30;99.90;;;;;;4989735;28;20219;-79
2022/01/31 18:13:45;;;;;;;12.97;2.50;;;6.30;99.90;;;;;;4994496;28;20207;-75
2022/01/31 18:16:12;;;;;;;9.93;1.50;;;6.40;99.90;;;;;;4995242;28;20208;-78
2022/01/31 18:18:38;;;;;;;11.90;1.57;;;6.40;99.90;;;;;;4993886;28;20751;-77
2022/01/31 18:21:06;;;;;;;8.13;1.30;;;6.40;99.90;;;;;;4992608;28;20222;-78
2022/01/31 18:23:35;;;;;;;9.60;1.90;;;6.40;99.90;;;;;;4993266;28;20222;-75
2022/01/31 18:26:02;;;;;;;10.53;1.93;;;6.40;99.90;;;;;;4993917;28;20690;-74
2022/01/31 18:28:32;;;;;;;14.07;1.27;;;6.50;99.90;;;;;;4992304;28;20213;-75
2022/01/31 18:31:01;;;;;;;9.60;1.70;;;6.50;99.90;;;;;;4975488;28;20683;-75
2022/01/31 18:33:30;;;;;;;8.00;1.50;;;6.50;99.90;;;;;;4977390;28;20383;-74
2022/01/31 18:35:57;;;;;;;7.93;1.20;;;6.50;99.90;;;;;;4993574;28;20286;-74
2022/01/31 18:38:24;;;;;;;10.50;1.37;;;6.50;99.90;;;;;;4994511;28;20210;-80
2022/01/31 18:40:52;;;;;;;9.20;1.40;;;6.40;99.90;;;;;;4994710;28;20210;-79
2022/01/31 18:43:19;;;;;;;9.93;1.30;;;6.40;99.90;;;;;;4994829;28;20234;-80
2022/01/31 18:45:48;;;;;;;11.87;1.40;;;6.20;99.90;;;;;;4979759;28;20743;-77
2022/01/31 18:48:23;;;;;;;10.27;1.73;;;6.10;99.90;;;;;;4977461;28;20280;-79
2022/01/31 18:50:50;;;;;;;4.67;1.57;;;5.90;99.90;;;;;;4991935;28;20218;-79
2022/01/31 18:53:18;;;;;;;12.90;1.67;;;5.80;99.90;;;;;;4994044;28;20211;-80
2022/01/31 18:55:45;;;;;;;13.97;1.70;;;5.90;99.90;;;;;;4986934;28;20201;-80
2022/01/31 18:58:15;;;;;;;14.07;1.53;;;5.80;99.90;;;;;;4988958;28;20199;-77
2022/01/31 19:00:42;;;;;;;8.03;1.40;;;5.90;99.90;;;;;;4982623;28;20570;-80
2022/01/31 19:03:09;;;;;;;9.93;1.83;;;5.90;99.90;;;;;;4985691;28;20206;-80
2022/01/31 19:05:37;;;;;;;10.50;1.20;;;5.90;99.90;;;;;;4993705;28;20213;-79
2022/01/31 19:08:08;;;;;;;12.27;1.33;;;6.00;99.90;;;;;;4994345;28;20213;-79
2022/01/31 19:10:45;;;;;;;15.30;1.40;;;6.10;99.90;;;;;;4992331;28;20225;-78
2022/01/31 19:13:16;;;;;;;3.57;0.97;;;5.90;99.90;;;;;;4992071;28;20244;-81
2022/01/31 19:15:44;;;;;;;10.90;1.27;;;6.00;99.90;;;;;;4993812;28;20293;-73
2022/01/31 19:18:12;;;;;;;2.87;1.07;;;6.00;99.90;;;;;;4993591;28;20210;-73
2022/01/31 19:20:41;;;;;;;9.43;1.53;;;6.00;99.90;;;;;;4994024;28;20211;-73
2022/01/31 19:23:08;;;;;;;5.73;0.83;;;5.90;99.90;;;;;;4994089;28;20548;-74
2022/01/31 19:25:35;;;;;;;8.27;1.03;;;5.90;99.90;;;;;;4993986;28;20211;-78
2022/01/31 19:28:02;;;;;;;9.93;1.37;;;5.90;99.90;;;;;;4983035;28;20208;-75
2022/01/31 19:30:32;;;;;;;3.70;1.20;;;5.90;99.90;;;;;;4985692;28;20214;-79
2022/01/31 19:32:59;;;;;;;6.80;1.73;;;5.80;99.90;;;;;;4979558;28;20234;-78
2022/01/31 19:35:27;;;;;;;8.83;1.17;;;5.80;99.90;;;;;;4988608;28;20214;-78
2022/01/31 19:37:58;;;;;;;6.63;1.07;;;5.70;99.90;;;;;;4980770;28;20203;-78
2022/01/31 19:43:19;;;;;;;5.60;0.70;;;5.60;99.90;;;;;;4982018;28;20616;-76
2022/01/31 19:45:55;;;;;;;8.50;1.00;;;5.70;99.90;;;;;;4979143;28;20211;-74
2022/01/31 19:48:22;;;;;;;6.17;1.00;;;5.70;99.90;;;;;;4984121;28;20215;-74
2022/01/31 19:50:51;;;;;;;8.23;1.10;;;5.70;99.90;;;;;;4982444;28;20203;-79
2022/01/31 19:53:18;;;;;;;4.40;1.30;;;5.60;99.90;;;;;;4978973;28;20198;-76
2022/01/31 19:55:45;;;;;;;4.67;1.17;;;5.60;99.90;;;;;;4988664;28;20209;-78
2022/01/31 19:58:12;;;;;;;2.70;0.90;;;5.60;99.90;;;;;;4978738;28;20261;-73
2022/01/31 20:00:39;;;;;;;6.77;1.07;;;5.60;99.90;;;;;;4979157;28;20747;-73
2022/01/31 20:03:08;;;;;;;7.47;1.70;;;5.70;99.90;;;;;;4979114;28;20678;-74
2022/01/31 20:05:35;;;;;;;8.97;0.93;;;5.70;99.90;;;;;;4991232;28;20244;-75
2022/01/31 20:08:03;;;;;;;3.53;1.13;;;5.80;99.90;;;;;;4986568;28;20213;-74
2022/01/31 20:10:37;;;;;;;8.10;0.97;;;5.80;99.90;;;;;;4984155;28;20203;-78
2022/01/31 20:13:04;;;;;;;10.50;1.67;;;5.80;99.90;;;;;;4985840;28;20238;-74
2022/01/31 20:15:32;;;;;;;10.60;1.50;;;5.80;99.90;;;;;;4985410;28;20207;-74
2022/01/31 20:18:00;;;;;;;7.77;1.57;;;5.80;99.90;;;;;;4985395;28;20211;-74
2022/01/31 20:20:28;;;;;;;14.50;1.60;;;5.80;99.90;;;;;;4989231;28;20217;-74
2022/01/31 20:22:55;;;;;;;8.00;1.13;;;5.90;99.90;;;;;;4982843;28;20226;-74
2022/01/31 20:25:22;;;;;;;9.80;1.47;;;5.80;99.90;;;;;;4985939;28;20244;-81
2022/01/31 20:27:49;;;;;;;13.43;1.73;;;5.70;99.90;;;;;;4987872;28;20202;-74
2022/01/31 20:30:16;;;;;;;8.47;1.70;;;5.60;99.90;;;;;;4978822;28;20211;-74
2022/01/31 20:32:43;;;;;;;6.03;1.30;;;5.60;99.90;;;;;;4982220;28;20564;-79
2022/01/31 20:35:10;;;;;;;7.70;0.97;;;5.50;99.90;;;;;;4981100;28;20215;-74
2022/01/31 20:37:40;;;;;;;9.30;1.30;;;5.60;99.90;;;;;;4979316;28;20217;-76
2022/01/31 20:40:18;;;;;;;7.97;1.23;;;5.50;99.90;;;;;;4979577;28;20232;-79
2022/01/31 20:42:46;;;;;;;17.67;1.87;;;5.50;99.90;;;;;;4979201;28;20227;-79
2022/01/31 20:45:12;;;;;;;10.27;1.27;;;5.50;99.90;;;;;;4975919;28;20617;-75
2022/01/31 20:47:39;;;;;;;7.60;1.37;;;5.30;99.90;;;;;;4984887;28;20601;-79
2022/01/31 20:50:07;;;;;;;10.53;1.63;;;5.30;99.90;;;;;;4984789;28;20201;-77
2022/01/31 20:52:34;;;;;;;13.20;1.93;;;5.30;99.90;;;;;;4984899;28;20249;-75
2022/01/31 20:55:03;;;;;;;9.93;2.00;;;5.30;99.90;;;;;;4978610;28;20211;-74
2022/01/31 20:57:35;;;;;;;6.90;1.23;;;5.30;99.90;;;;;;4982873;28;20303;-79
2022/01/31 21:00:02;;;;;;;16.00;1.33;;;5.30;99.90;;;;;;4989192;28;20295;-75
2022/01/31 21:02:29;;;;;;;7.93;1.63;;;5.20;99.90;;;;;;4978219;28;20400;-74
2022/01/31 21:04:56;;;;;;;14.47;1.93;;;5.30;99.90;;;;;;4983154;28;20243;-73
2022/01/31 21:07:28;;;;;;;8.57;1.30;;;5.30;99.90;;;;;;4975916;28;20210;-76
2022/01/31 21:09:55;;;;;;;6.43;1.30;;;5.20;99.90;;;;;;4978841;28;20211;-80
2022/01/31 21:12:26;;;;;;;10.07;1.50;;;5.10;99.90;;;;;;4992419;28;20231;-79
2022/01/31 21:14:53;;;;;;;7.23;1.37;;;5.00;99.90;;;;;;4985247;28;20671;-80
2022/01/31 21:17:20;;;;;;;9.97;1.80;;;5.00;99.90;;;;;;4984161;28;20209;-81
2022/01/31 21:19:46;;;;;;;16.77;2.17;;;5.10;99.90;;;;;;4986822;28;20665;-79
2022/01/31 21:22:13;;;;;;;8.80;1.80;;;5.10;99.90;;;;;;4985064;28;20255;-81
2022/01/31 21:24:40;;;;;;;9.93;2.50;;;5.00;99.90;;;;;;4990334;28;20689;-78
2022/01/31 21:27:07;;;;;;;9.43;1.87;;;4.90;99.90;;;;;;4985771;28;20606;-81
2022/01/31 21:29:35;;;;;;;7.70;1.90;;;4.90;99.90;;;;;;4991942;28;20297;-81
2022/01/31 21:32:02;;;;;;;8.70;1.20;;;4.80;99.90;;;;;;4981798;28;20328;-81
2022/01/31 21:34:29;;;;;;;15.40;1.67;;;4.80;99.90;;;;;;4983607;28;20209;-81
2022/01/31 21:36:56;;;;;;;5.97;1.50;;;4.90;99.90;;;;;;4987394;28;20799;-76
2022/01/31 21:39:24;;;;;;;12.70;1.40;;;4.90;99.90;;;;;;4989276;28;20209;-81
2022/01/31 21:41:50;;;;;;;6.93;1.30;;;4.90;99.90;;;;;;4985756;28;20230;-81
2022/01/31 21:44:17;;;;;;;8.03;1.27;;;4.90;99.90;;;;;;4987716;28;20313;-81
2022/01/31 21:46:45;;;;;;;7.57;1.30;;;4.90;99.90;;;;;;4986749;28;20211;-81
2022/01/31 21:49:12;;;;;;;7.37;1.70;;;4.80;99.90;;;;;;4985637;28;20218;-80
2022/01/31 21:51:39;;;;;;;6.97;1.40;;;4.80;99.90;;;;;;4983637;28;20747;-79
2022/01/31 21:54:06;;;;;;;10.43;1.33;;;4.80;99.90;;;;;;4986329;28;20214;-80
2022/01/31 21:56:33;;;;;;;4.07;1.10;;;4.80;99.90;;;;;;4983007;28;20206;-78
2022/01/31 21:59:00;;;;;;;5.33;1.20;;;4.80;99.90;;;;;;4988250;28;20207;-79
2022/01/31 22:01:27;;;;;;;4.63;1.17;;;4.80;99.90;;;;;;4980747;28;20256;-78
2022/01/31 22:03:55;;;;;;;8.57;1.10;;;4.80;99.90;;;;;;4989818;28;20646;-79
2022/01/31 22:06:22;;;;;;;10.27;1.37;;;4.80;99.90;;;;;;4987512;28;20691;-73
2022/01/31 22:08:53;;;;;;;8.37;1.10;;;4.80;99.90;;;;;;4981224;28;20214;-75
2022/01/31 22:14:06;;;;;;;8.50;1.30;;;4.80;99.90;;;;;;4991447;28;20730;-76
2022/01/31 22:16:34;;;;;;;9.93;1.33;;;4.70;99.90;;;;;;4984897;28;20211;-72
2022/01/31 22:19:02;;;;;;;4.03;1.40;;;4.70;99.90;;;;;;4990147;28;20216;-79
2022/01/31 22:21:29;;;;;;;8.40;1.00;;;4.80;99.90;;;;;;4989075;28;20222;-79
2022/01/31 22:23:56;;;;;;;10.43;1.33;;;4.80;99.90;;;;;;4992243;28;20207;-77
2022/01/31 22:26:22;;;;;;;9.07;1.30;;;4.60;99.90;;;;;;4979669;28;20581;-80
2022/01/31 22:28:49;;;;;;;6.53;0.80;;;4.50;99.90;;;;;;4994335;28;20375;-79
2022/01/31 22:31:16;;;;;;;8.43;1.37;;;4.50;99.90;;;;;;4986740;28;20731;-78
2022/01/31 22:33:49;;;;;;;5.33;1.00;;;4.50;99.90;;;;;;4973679;28;20302;-74
2022/01/31 22:36:17;;;;;;;11.23;1.57;;;4.50;99.90;;;;;;4982829;28;20304;-74
2022/01/31 22:38:44;;;;;;;4.97;1.07;;;4.50;99.90;;;;;;4994631;28;20210;-74
